sensor_id;sensor_type;location;lat;lon;timestamp;P1;durP1;ratioP1;P2;durP2;ratioP2
16579;SDS011;8402;51.466;6.806;2022-09-23T00:01:21;3.37;;;2.17;;
16579;SDS011;8402;51.466;6.806;2022-09-23T00:03:49;5.73;;;2.43;;
16579;SDS011;8402;51.466;6.806;2022-09-23T00:06:18;5.07;;;2.50;;
16579;SDS011;8402;51.466;6.806;2022-09-23T00:08:47;4.10;;;2.07;;
16579;SDS011;8402;51.466;6.806;2022-09-23T00:11:16;5.57;;;2.23;;
16579;SDS011;8402;51.466;6.806;2022-09-23T00:13:45;3.07;;;2.00;;
16579;SDS011;8402;51.466;6.806;2022-09-23T00:16:16;11.43;;;2.20;;
16579;SDS011;8402;51.466;6.806;2022-09-23T00:18:47;5.33;;;2.40;;
16579;SDS011;8402;51.466;6.806;2022-09-23T00:21:16;4.70;;;2.33;;
16579;SDS011;8402;51.466;6.806;2022-09-23T00:23:44;7.27;;;2.20;;
16579;SDS011;8402;51.466;6.806;2022-09-23T00:26:13;4.20;;;2.30;;
16579;SDS011;8402;51.466;6.806;2022-09-23T00:28:44;3.07;;;1.90;;
16579;SDS011;8402;51.466;6.806;2022-09-23T00:31:13;2.60;;;1.80;;
16579;SDS011;8402;51.466;6.806;2022-09-23T00:33:42;3.47;;;2.10;;
16579;SDS011;8402;51.466;6.806;2022-09-23T00:36:11;2.27;;;1.70;;
16579;SDS011;8402;51.466;6.806;2022-09-23T00:38:41;2.43;;;1.77;;
16579;SDS011;8402;51.466;6.806;2022-09-23T00:41:10;2.77;;;1.93;;
16579;SDS011;8402;51.466;6.806;2022-09-23T00:43:41;3.23;;;1.83;;
16579;SDS011;8402;51.466;6.806;2022-09-23T00:46:12;4.83;;;1.77;;
16579;SDS011;8402;51.466;6.806;2022-09-23T00:48:43;3.53;;;2.00;;
16579;SDS011;8402;51.466;6.806;2022-09-23T00:51:14;5.53;;;2.00;;
16579;SDS011;8402;51.466;6.806;2022-09-23T00:53:45;3.87;;;1.70;;
16579;SDS011;8402;51.466;6.806;2022-09-23T00:56:15;4.67;;;2.07;;
16579;SDS011;8402;51.466;6.806;2022-09-23T00:58:44;3.90;;;1.87;;
16579;SDS011;8402;51.466;6.806;2022-09-23T01:01:13;2.53;;;1.83;;
16579;SDS011;8402;51.466;6.806;2022-09-23T01:03:42;5.43;;;2.00;;
16579;SDS011;8402;51.466;6.806;2022-09-23T01:06:12;3.37;;;1.60;;
16579;SDS011;8402;51.466;6.806;2022-09-23T01:08:41;5.60;;;2.00;;
16579;SDS011;8402;51.466;6.806;2022-09-23T01:11:15;3.37;;;2.10;;
16579;SDS011;8402;51.466;6.806;2022-09-23T01:13:52;3.80;;;2.10;;
16579;SDS011;8402;51.466;6.806;2022-09-23T01:16:28;3.37;;;1.67;;
16579;SDS011;8402;51.466;6.806;2022-09-23T01:19:05;4.77;;;1.70;;
16579;SDS011;8402;51.466;6.806;2022-09-23T01:21:51;5.57;;;1.73;;
16579;SDS011;8402;51.466;6.806;2022-09-23T01:24:31;3.83;;;2.20;;
16579;SDS011;8402;51.466;6.806;2022-09-23T01:30:10;3.07;;;1.77;;
16579;SDS011;8402;51.466;6.806;2022-09-23T01:32:50;4.80;;;1.93;;
16579;SDS011;8402;51.466;6.806;2022-09-23T01:35:36;3.43;;;1.97;;
16579;SDS011;8402;51.466;6.806;2022-09-23T01:38:14;5.10;;;1.80;;
16579;SDS011;8402;51.466;6.806;2022-09-23T01:40:48;4.23;;;1.73;;
16579;SDS011;8402;51.466;6.806;2022-09-23T01:43:21;2.50;;;1.70;;
16579;SDS011;8402;51.466;6.806;2022-09-23T01:45:54;4.20;;;2.17;;
16579;SDS011;8402;51.466;6.806;2022-09-23T01:48:28;5.53;;;2.07;;
16579;SDS011;8402;51.466;6.806;2022-09-23T01:51:01;3.43;;;1.90;;
16579;SDS011;8402;51.466;6.806;2022-09-23T01:53:35;4.50;;;1.73;;
16579;SDS011;8402;51.466;6.806;2022-09-23T01:56:10;4.73;;;1.60;;
16579;SDS011;8402;51.466;6.806;2022-09-23T01:58:44;3.33;;;1.70;;
16579;SDS011;8402;51.466;6.806;2022-09-23T02:01:18;6.17;;;1.90;;
16579;SDS011;8402;51.466;6.806;2022-09-23T02:03:54;3.27;;;1.83;;
16579;SDS011;8402;51.466;6.806;2022-09-23T02:06:31;4.47;;;1.70;;
16579;SDS011;8402;51.466;6.806;2022-09-23T02:09:04;3.57;;;1.80;;
16579;SDS011;8402;51.466;6.806;2022-09-23T02:11:37;2.20;;;1.60;;
16579;SDS011;8402;51.466;6.806;2022-09-23T02:14:10;2.10;;;1.70;;
16579;SDS011;8402;51.466;6.806;2022-09-23T02:16:44;4.43;;;1.90;;
16579;SDS011;8402;51.466;6.806;2022-09-23T02:19:17;5.07;;;1.90;;
16579;SDS011;8402;51.466;6.806;2022-09-23T02:21:50;2.10;;;1.80;;
16579;SDS011;8402;51.466;6.806;2022-09-23T02:24:23;2.90;;;1.70;;
16579;SDS011;8402;51.466;6.806;2022-09-23T02:26:54;3.03;;;1.90;;
16579;SDS011;8402;51.466;6.806;2022-09-23T02:29:31;3.43;;;1.90;;
16579;SDS011;8402;51.466;6.806;2022-09-23T02:32:11;2.03;;;1.60;;
16579;SDS011;8402;51.466;6.806;2022-09-23T02:34:45;5.47;;;1.90;;
16579;SDS011;8402;51.466;6.806;2022-09-23T02:37:22;6.97;;;2.13;;
16579;SDS011;8402;51.466;6.806;2022-09-23T02:39:59;7.77;;;2.17;;
16579;SDS011;8402;51.466;6.806;2022-09-23T02:42:32;6.23;;;2.23;;
16579;SDS011;8402;51.466;6.806;2022-09-23T02:45:05;6.77;;;2.20;;
16579;SDS011;8402;51.466;6.806;2022-09-23T02:47:33;5.47;;;2.13;;
16579;SDS011;8402;51.466;6.806;2022-09-23T02:50:06;4.07;;;2.37;;
16579;SDS011;8402;51.466;6.806;2022-09-23T02:52:35;4.93;;;2.23;;
16579;SDS011;8402;51.466;6.806;2022-09-23T02:55:04;3.13;;;1.87;;
16579;SDS011;8402;51.466;6.806;2022-09-23T02:57:32;8.03;;;2.13;;
16579;SDS011;8402;51.466;6.806;2022-09-23T03:00:00;7.33;;;2.67;;
16579;SDS011;8402;51.466;6.806;2022-09-23T03:05:23;9.53;;;2.50;;
16579;SDS011;8402;51.466;6.806;2022-09-23T03:08:00;6.53;;;2.60;;
16579;SDS011;8402;51.466;6.806;2022-09-23T03:10:48;3.80;;;2.47;;
16579;SDS011;8402;51.466;6.806;2022-09-23T03:13:26;5.83;;;2.43;;
16579;SDS011;8402;51.466;6.806;2022-09-23T03:15:59;3.70;;;2.20;;
16579;SDS011;8402;51.466;6.806;2022-09-23T03:18:35;4.60;;;2.20;;
16579;SDS011;8402;51.466;6.806;2022-09-23T03:21:10;6.07;;;2.60;;
16579;SDS011;8402;51.466;6.806;2022-09-23T03:23:43;9.53;;;2.37;;
16579;SDS011;8402;51.466;6.806;2022-09-23T03:26:15;4.40;;;2.60;;
16579;SDS011;8402;51.466;6.806;2022-09-23T03:28:46;4.50;;;2.47;;
16579;SDS011;8402;51.466;6.806;2022-09-23T03:31:16;5.87;;;2.33;;
16579;SDS011;8402;51.466;6.806;2022-09-23T03:33:45;5.37;;;2.40;;
16579;SDS011;8402;51.466;6.806;2022-09-23T03:36:19;4.60;;;2.50;;
16579;SDS011;8402;51.466;6.806;2022-09-23T03:39:11;4.17;;;2.23;;
16579;SDS011;8402;51.466;6.806;2022-09-23T03:41:47;4.87;;;2.50;;
16579;SDS011;8402;51.466;6.806;2022-09-23T03:44:18;5.83;;;2.63;;
16579;SDS011;8402;51.466;6.806;2022-09-23T03:46:47;4.27;;;2.57;;
16579;SDS011;8402;51.466;6.806;2022-09-23T03:49:16;3.63;;;2.47;;
16579;SDS011;8402;51.466;6.806;2022-09-23T03:51:46;5.80;;;2.70;;
16579;SDS011;8402;51.466;6.806;2022-09-23T03:54:14;6.97;;;2.90;;
16579;SDS011;8402;51.466;6.806;2022-09-23T03:56:44;8.30;;;2.40;;
16579;SDS011;8402;51.466;6.806;2022-09-23T03:59:13;5.37;;;2.63;;
16579;SDS011;8402;51.466;6.806;2022-09-23T04:01:41;7.47;;;2.60;;
16579;SDS011;8402;51.466;6.806;2022-09-23T04:04:11;6.90;;;2.50;;
16579;SDS011;8402;51.466;6.806;2022-09-23T04:06:39;8.50;;;2.70;;
16579;SDS011;8402;51.466;6.806;2022-09-23T04:09:08;7.40;;;2.70;;
16579;SDS011;8402;51.466;6.806;2022-09-23T04:11:36;8.50;;;2.50;;
16579;SDS011;8402;51.466;6.806;2022-09-23T04:14:03;6.23;;;2.70;;
16579;SDS011;8402;51.466;6.806;2022-09-23T04:16:32;3.80;;;2.30;;
16579;SDS011;8402;51.466;6.806;2022-09-23T04:19:00;6.97;;;2.53;;
16579;SDS011;8402;51.466;6.806;2022-09-23T04:21:27;3.60;;;2.20;;
16579;SDS011;8402;51.466;6.806;2022-09-23T04:23:56;4.53;;;2.40;;
16579;SDS011;8402;51.466;6.806;2022-09-23T04:26:25;8.37;;;2.40;;
16579;SDS011;8402;51.466;6.806;2022-09-23T04:28:53;4.43;;;2.17;;
16579;SDS011;8402;51.466;6.806;2022-09-23T04:31:22;4.37;;;2.30;;
16579;SDS011;8402;51.466;6.806;2022-09-23T04:33:51;6.03;;;2.70;;
16579;SDS011;8402;51.466;6.806;2022-09-23T04:36:19;6.57;;;2.80;;
16579;SDS011;8402;51.466;6.806;2022-09-23T04:38:47;6.17;;;3.00;;
16579;SDS011;8402;51.466;6.806;2022-09-23T04:41:16;6.13;;;2.50;;
16579;SDS011;8402;51.466;6.806;2022-09-23T04:43:46;7.73;;;2.90;;
16579;SDS011;8402;51.466;6.806;2022-09-23T04:46:14;6.57;;;2.90;;
16579;SDS011;8402;51.466;6.806;2022-09-23T04:48:43;7.50;;;3.17;;
16579;SDS011;8402;51.466;6.806;2022-09-23T04:51:11;10.23;;;2.77;;
16579;SDS011;8402;51.466;6.806;2022-09-23T04:53:42;4.60;;;2.33;;
16579;SDS011;8402;51.466;6.806;2022-09-23T04:56:12;4.90;;;2.93;;
16579;SDS011;8402;51.466;6.806;2022-09-23T04:58:41;6.70;;;3.23;;
16579;SDS011;8402;51.466;6.806;2022-09-23T05:01:11;5.63;;;2.90;;
16579;SDS011;8402;51.466;6.806;2022-09-23T05:03:43;8.93;;;3.00;;
16579;SDS011;8402;51.466;6.806;2022-09-23T05:06:13;9.73;;;3.40;;
16579;SDS011;8402;51.466;6.806;2022-09-23T05:08:41;9.87;;;3.57;;
16579;SDS011;8402;51.466;6.806;2022-09-23T05:11:13;5.93;;;2.77;;
16579;SDS011;8402;51.466;6.806;2022-09-23T05:13:43;11.47;;;3.17;;
16579;SDS011;8402;51.466;6.806;2022-09-23T05:16:14;6.47;;;2.90;;
16579;SDS011;8402;51.466;6.806;2022-09-23T05:18:43;6.57;;;2.80;;
16579;SDS011;8402;51.466;6.806;2022-09-23T05:21:12;10.63;;;3.10;;
16579;SDS011;8402;51.466;6.806;2022-09-23T05:23:45;7.83;;;2.90;;
16579;SDS011;8402;51.466;6.806;2022-09-23T05:26:14;5.87;;;2.63;;
16579;SDS011;8402;51.466;6.806;2022-09-23T05:28:42;8.70;;;3.00;;
16579;SDS011;8402;51.466;6.806;2022-09-23T05:31:11;7.27;;;3.07;;
16579;SDS011;8402;51.466;6.806;2022-09-23T05:33:46;6.07;;;3.40;;
16579;SDS011;8402;51.466;6.806;2022-09-23T05:36:17;7.60;;;2.93;;
16579;SDS011;8402;51.466;6.806;2022-09-23T05:38:46;7.63;;;2.83;;
16579;SDS011;8402;51.466;6.806;2022-09-23T05:41:15;8.03;;;3.00;;
16579;SDS011;8402;51.466;6.806;2022-09-23T05:43:44;4.40;;;2.60;;
16579;SDS011;8402;51.466;6.806;2022-09-23T05:46:14;5.80;;;2.90;;
16579;SDS011;8402;51.466;6.806;2022-09-23T05:48:43;5.97;;;3.17;;
16579;SDS011;8402;51.466;6.806;2022-09-23T05:51:12;8.83;;;3.00;;
16579;SDS011;8402;51.466;6.806;2022-09-23T05:53:44;6.00;;;2.67;;
16579;SDS011;8402;51.466;6.806;2022-09-23T05:56:13;5.47;;;2.80;;
16579;SDS011;8402;51.466;6.806;2022-09-23T05:58:42;5.77;;;2.63;;
16579;SDS011;8402;51.466;6.806;2022-09-23T06:01:11;6.70;;;2.80;;
16579;SDS011;8402;51.466;6.806;2022-09-23T06:03:41;7.00;;;2.73;;
16579;SDS011;8402;51.466;6.806;2022-09-23T06:06:12;12.57;;;3.07;;
16579;SDS011;8402;51.466;6.806;2022-09-23T06:08:41;4.63;;;2.63;;
16579;SDS011;8402;51.466;6.806;2022-09-23T06:11:10;7.17;;;2.83;;
16579;SDS011;8402;51.466;6.806;2022-09-23T06:13:39;10.83;;;3.73;;
16579;SDS011;8402;51.466;6.806;2022-09-23T06:16:08;13.93;;;3.20;;
16579;SDS011;8402;51.466;6.806;2022-09-23T06:18:38;6.70;;;2.80;;
16579;SDS011;8402;51.466;6.806;2022-09-23T06:21:13;7.30;;;2.87;;
16579;SDS011;8402;51.466;6.806;2022-09-23T06:23:41;10.77;;;2.90;;
16579;SDS011;8402;51.466;6.806;2022-09-23T06:26:11;6.30;;;3.10;;
16579;SDS011;8402;51.466;6.806;2022-09-23T06:28:41;8.23;;;2.73;;
16579;SDS011;8402;51.466;6.806;2022-09-23T06:31:10;7.97;;;2.90;;
16579;SDS011;8402;51.466;6.806;2022-09-23T06:33:40;5.53;;;2.30;;
16579;SDS011;8402;51.466;6.806;2022-09-23T06:36:11;6.33;;;2.30;;
16579;SDS011;8402;51.466;6.806;2022-09-23T06:38:56;6.57;;;2.50;;
16579;SDS011;8402;51.466;6.806;2022-09-23T06:41:23;4.20;;;2.57;;
16579;SDS011;8402;51.466;6.806;2022-09-23T06:43:51;6.90;;;2.50;;
16579;SDS011;8402;51.466;6.806;2022-09-23T06:46:19;3.30;;;2.10;;
16579;SDS011;8402;51.466;6.806;2022-09-23T06:48:47;6.90;;;2.40;;
16579;SDS011;8402;51.466;6.806;2022-09-23T06:51:17;5.40;;;2.20;;
16579;SDS011;8402;51.466;6.806;2022-09-23T06:53:47;3.83;;;2.17;;
16579;SDS011;8402;51.466;6.806;2022-09-23T06:56:15;4.70;;;2.10;;
16579;SDS011;8402;51.466;6.806;2022-09-23T06:58:45;2.47;;;2.10;;
16579;SDS011;8402;51.466;6.806;2022-09-23T07:01:15;4.90;;;2.63;;
16579;SDS011;8402;51.466;6.806;2022-09-23T07:03:44;4.07;;;2.17;;
16579;SDS011;8402;51.466;6.806;2022-09-23T07:06:14;3.80;;;2.00;;
16579;SDS011;8402;51.466;6.806;2022-09-23T07:08:44;2.83;;;1.90;;
16579;SDS011;8402;51.466;6.806;2022-09-23T07:11:13;4.27;;;2.00;;
16579;SDS011;8402;51.466;6.806;2022-09-23T07:13:46;7.83;;;3.27;;
16579;SDS011;8402;51.466;6.806;2022-09-23T07:16:14;4.43;;;2.43;;
16579;SDS011;8402;51.466;6.806;2022-09-23T07:18:42;2.67;;;2.17;;
16579;SDS011;8402;51.466;6.806;2022-09-23T07:21:11;8.23;;;2.00;;
16579;SDS011;8402;51.466;6.806;2022-09-23T07:23:41;3.83;;;2.17;;
16579;SDS011;8402;51.466;6.806;2022-09-23T07:26:11;2.90;;;2.17;;
16579;SDS011;8402;51.466;6.806;2022-09-23T07:28:39;3.77;;;2.30;;
16579;SDS011;8402;51.466;6.806;2022-09-23T07:31:07;3.13;;;1.80;;
16579;SDS011;8402;51.466;6.806;2022-09-23T07:33:38;6.03;;;2.40;;
16579;SDS011;8402;51.466;6.806;2022-09-23T07:36:09;3.17;;;1.90;;
16579;SDS011;8402;51.466;6.806;2022-09-23T07:38:39;4.17;;;1.93;;
16579;SDS011;8402;51.466;6.806;2022-09-23T07:41:13;3.83;;;2.00;;
16579;SDS011;8402;51.466;6.806;2022-09-23T07:43:42;5.70;;;2.70;;
16579;SDS011;8402;51.466;6.806;2022-09-23T07:46:11;4.20;;;2.30;;
16579;SDS011;8402;51.466;6.806;2022-09-23T07:48:42;3.13;;;2.10;;
16579;SDS011;8402;51.466;6.806;2022-09-23T07:51:11;3.90;;;2.20;;
16579;SDS011;8402;51.466;6.806;2022-09-23T07:53:44;2.90;;;2.00;;
16579;SDS011;8402;51.466;6.806;2022-09-23T07:56:14;3.57;;;2.10;;
16579;SDS011;8402;51.466;6.806;2022-09-23T07:58:44;3.00;;;1.90;;
16579;SDS011;8402;51.466;6.806;2022-09-23T08:01:25;4.30;;;2.23;;
16579;SDS011;8402;51.466;6.806;2022-09-23T08:03:57;3.40;;;2.20;;
16579;SDS011;8402;51.466;6.806;2022-09-23T08:06:26;5.90;;;2.23;;
16579;SDS011;8402;51.466;6.806;2022-09-23T08:08:55;4.17;;;2.20;;
16579;SDS011;8402;51.466;6.806;2022-09-23T08:11:25;6.03;;;2.00;;
16579;SDS011;8402;51.466;6.806;2022-09-23T08:13:54;4.43;;;2.20;;
16579;SDS011;8402;51.466;6.806;2022-09-23T08:16:22;5.00;;;2.03;;
16579;SDS011;8402;51.466;6.806;2022-09-23T08:18:50;4.23;;;2.00;;
16579;SDS011;8402;51.466;6.806;2022-09-23T08:21:18;6.20;;;2.30;;
16579;SDS011;8402;51.466;6.806;2022-09-23T08:23:47;2.10;;;1.83;;
16579;SDS011;8402;51.466;6.806;2022-09-23T08:26:17;3.73;;;2.27;;
16579;SDS011;8402;51.466;6.806;2022-09-23T08:28:49;2.93;;;2.10;;
16579;SDS011;8402;51.466;6.806;2022-09-23T08:31:20;2.70;;;1.83;;
16579;SDS011;8402;51.466;6.806;2022-09-23T08:33:52;3.13;;;1.90;;
16579;SDS011;8402;51.466;6.806;2022-09-23T08:36:21;5.07;;;2.00;;
16579;SDS011;8402;51.466;6.806;2022-09-23T08:38:49;3.00;;;1.93;;
16579;SDS011;8402;51.466;6.806;2022-09-23T08:41:19;4.20;;;2.00;;
16579;SDS011;8402;51.466;6.806;2022-09-23T08:43:57;3.33;;;2.10;;
16579;SDS011;8402;51.466;6.806;2022-09-23T08:46:32;3.40;;;1.93;;
16579;SDS011;8402;51.466;6.806;2022-09-23T08:49:03;3.17;;;2.30;;
16579;SDS011;8402;51.466;6.806;2022-09-23T08:51:34;4.93;;;2.20;;
16579;SDS011;8402;51.466;6.806;2022-09-23T08:54:08;3.97;;;2.13;;
16579;SDS011;8402;51.466;6.806;2022-09-23T08:56:37;3.07;;;2.07;;
16579;SDS011;8402;51.466;6.806;2022-09-23T08:59:08;5.43;;;2.27;;
16579;SDS011;8402;51.466;6.806;2022-09-23T09:01:40;5.53;;;2.10;;
16579;SDS011;8402;51.466;6.806;2022-09-23T09:04:16;3.63;;;2.10;;
16579;SDS011;8402;51.466;6.806;2022-09-23T09:06:49;6.40;;;2.23;;
16579;SDS011;8402;51.466;6.806;2022-09-23T09:09:34;3.53;;;2.10;;
16579;SDS011;8402;51.466;6.806;2022-09-23T09:12:09;3.53;;;2.17;;
16579;SDS011;8402;51.466;6.806;2022-09-23T09:14:42;2.60;;;2.00;;
16579;SDS011;8402;51.466;6.806;2022-09-23T09:17:18;4.03;;;2.30;;
16579;SDS011;8402;51.466;6.806;2022-09-23T09:20:00;2.90;;;2.20;;
16579;SDS011;8402;51.466;6.806;2022-09-23T09:22:38;3.37;;;2.03;;
16579;SDS011;8402;51.466;6.806;2022-09-23T09:25:16;3.37;;;2.10;;
16579;SDS011;8402;51.466;6.806;2022-09-23T09:27:50;5.47;;;2.07;;
16579;SDS011;8402;51.466;6.806;2022-09-23T09:30:20;4.43;;;2.27;;
16579;SDS011;8402;51.466;6.806;2022-09-23T09:32:52;3.60;;;2.10;;
16579;SDS011;8402;51.466;6.806;2022-09-23T09:35:27;5.33;;;2.30;;
16579;SDS011;8402;51.466;6.806;2022-09-23T09:38:02;16.37;;;3.13;;
16579;SDS011;8402;51.466;6.806;2022-09-23T09:40:31;8.27;;;4.00;;
16579;SDS011;8402;51.466;6.806;2022-09-23T09:43:00;8.03;;;3.50;;
16579;SDS011;8402;51.466;6.806;2022-09-23T09:45:36;6.40;;;3.20;;
16579;SDS011;8402;51.466;6.806;2022-09-23T09:48:25;7.10;;;3.10;;
16579;SDS011;8402;51.466;6.806;2022-09-23T09:51:14;5.63;;;2.97;;
16579;SDS011;8402;51.466;6.806;2022-09-23T09:53:44;6.63;;;2.97;;
16579;SDS011;8402;51.466;6.806;2022-09-23T09:56:13;6.53;;;3.00;;
16579;SDS011;8402;51.466;6.806;2022-09-23T09:58:44;7.90;;;2.80;;
16579;SDS011;8402;51.466;6.806;2022-09-23T10:01:22;4.33;;;3.07;;
16579;SDS011;8402;51.466;6.806;2022-09-23T10:03:53;7.17;;;3.67;;
16579;SDS011;8402;51.466;6.806;2022-09-23T10:06:25;7.23;;;3.60;;
16579;SDS011;8402;51.466;6.806;2022-09-23T10:09:08;8.67;;;3.43;;
16579;SDS011;8402;51.466;6.806;2022-09-23T10:11:42;9.17;;;3.97;;
16579;SDS011;8402;51.466;6.806;2022-09-23T10:14:29;6.40;;;4.00;;
16579;SDS011;8402;51.466;6.806;2022-09-23T10:17:02;9.38;;;4.18;;
16579;SDS011;8402;51.466;6.806;2022-09-23T10:19:33;9.82;;;3.63;;
16579;SDS011;8402;51.466;6.806;2022-09-23T10:22:07;7.22;;;3.65;;
16579;SDS011;8402;51.466;6.806;2022-09-23T10:24:46;9.82;;;3.80;;
16579;SDS011;8402;51.466;6.806;2022-09-23T10:27:15;11.15;;;4.53;;
16579;SDS011;8402;51.466;6.806;2022-09-23T10:29:54;10.05;;;4.20;;
16579;SDS011;8402;51.466;6.806;2022-09-23T10:32:26;8.88;;;4.47;;
16579;SDS011;8402;51.466;6.806;2022-09-23T10:34:56;6.68;;;3.85;;
16579;SDS011;8402;51.466;6.806;2022-09-23T10:37:35;7.18;;;3.67;;
16579;SDS011;8402;51.466;6.806;2022-09-23T10:40:11;6.57;;;3.85;;
16579;SDS011;8402;51.466;6.806;2022-09-23T10:43:17;6.15;;;3.30;;
16579;SDS011;8402;51.466;6.806;2022-09-23T10:46:07;5.72;;;3.28;;
16579;SDS011;8402;51.466;6.806;2022-09-23T10:49:05;6.10;;;3.10;;
16579;SDS011;8402;51.466;6.806;2022-09-23T10:52:00;7.63;;;3.42;;
16579;SDS011;8402;51.466;6.806;2022-09-23T10:54:38;6.22;;;3.88;;
16579;SDS011;8402;51.466;6.806;2022-09-23T10:57:22;8.88;;;3.33;;
16579;SDS011;8402;51.466;6.806;2022-09-23T11:00:12;11.32;;;3.58;;
16579;SDS011;8402;51.466;6.806;2022-09-23T11:03:00;8.07;;;4.18;;
16579;SDS011;8402;51.466;6.806;2022-09-23T11:05:53;9.45;;;4.22;;
16579;SDS011;8402;51.466;6.806;2022-09-23T11:11:31;6.80;;;3.65;;
16579;SDS011;8402;51.466;6.806;2022-09-23T11:14:14;6.70;;;3.35;;
16579;SDS011;8402;51.466;6.806;2022-09-23T11:16:57;10.32;;;3.58;;
16579;SDS011;8402;51.466;6.806;2022-09-23T11:19:52;5.28;;;2.97;;
16579;SDS011;8402;51.466;6.806;2022-09-23T11:22:33;8.68;;;3.53;;
16579;SDS011;8402;51.466;6.806;2022-09-23T11:25:16;7.55;;;3.30;;
16579;SDS011;8402;51.466;6.806;2022-09-23T11:28:08;7.38;;;3.60;;
16579;SDS011;8402;51.466;6.806;2022-09-23T11:30:57;6.68;;;2.85;;
16579;SDS011;8402;51.466;6.806;2022-09-23T11:33:38;5.80;;;3.17;;
16579;SDS011;8402;51.466;6.806;2022-09-23T11:36:23;7.22;;;3.00;;
16579;SDS011;8402;51.466;6.806;2022-09-23T11:38:55;5.93;;;3.30;;
16579;SDS011;8402;51.466;6.806;2022-09-23T11:41:26;6.88;;;3.22;;
16579;SDS011;8402;51.466;6.806;2022-09-23T11:43:57;8.00;;;3.17;;
16579;SDS011;8402;51.466;6.806;2022-09-23T11:46:34;8.70;;;3.78;;
16579;SDS011;8402;51.466;6.806;2022-09-23T11:49:08;7.38;;;3.40;;
16579;SDS011;8402;51.466;6.806;2022-09-23T11:51:42;7.78;;;3.47;;
16579;SDS011;8402;51.466;6.806;2022-09-23T11:54:28;6.82;;;3.20;;
16579;SDS011;8402;51.466;6.806;2022-09-23T11:57:06;4.82;;;3.25;;
16579;SDS011;8402;51.466;6.806;2022-09-23T11:59:41;6.18;;;3.20;;
16579;SDS011;8402;51.466;6.806;2022-09-23T12:02:20;7.93;;;3.30;;
16579;SDS011;8402;51.466;6.806;2022-09-23T12:04:57;9.00;;;4.00;;
16579;SDS011;8402;51.466;6.806;2022-09-23T12:07:32;10.63;;;4.00;;
16579;SDS011;8402;51.466;6.806;2022-09-23T12:10:11;8.00;;;3.95;;
16579;SDS011;8402;51.466;6.806;2022-09-23T12:12:41;10.48;;;4.10;;
16579;SDS011;8402;51.466;6.806;2022-09-23T12:15:20;11.23;;;4.50;;
16579;SDS011;8402;51.466;6.806;2022-09-23T12:18:06;10.73;;;4.05;;
16579;SDS011;8402;51.466;6.806;2022-09-23T12:24:18;12.70;;;4.53;;
16579;SDS011;8402;51.466;6.806;2022-09-23T12:26:56;16.73;;;4.40;;
16579;SDS011;8402;51.466;6.806;2022-09-23T12:29:31;10.05;;;4.50;;
16579;SDS011;8402;51.466;6.806;2022-09-23T12:32:01;13.75;;;4.03;;
16579;SDS011;8402;51.466;6.806;2022-09-23T12:34:37;8.30;;;3.92;;
16579;SDS011;8402;51.466;6.806;2022-09-23T12:37:19;6.85;;;4.00;;
16579;SDS011;8402;51.466;6.806;2022-09-23T12:39:52;8.90;;;3.70;;
16579;SDS011;8402;51.466;6.806;2022-09-23T12:42:22;8.85;;;4.22;;
16579;SDS011;8402;51.466;6.806;2022-09-23T12:47:58;10.88;;;4.00;;
16579;SDS011;8402;51.466;6.806;2022-09-23T12:50:45;11.50;;;3.78;;
16579;SDS011;8402;51.466;6.806;2022-09-23T12:56:24;8.07;;;3.30;;
16579;SDS011;8402;51.466;6.806;2022-09-23T12:59:00;8.50;;;3.17;;
16579;SDS011;8402;51.466;6.806;2022-09-23T13:01:47;9.13;;;3.40;;
16579;SDS011;8402;51.466;6.806;2022-09-23T13:07:21;20.80;;;4.68;;
16579;SDS011;8402;51.466;6.806;2022-09-23T13:09:54;14.27;;;3.83;;
16579;SDS011;8402;51.466;6.806;2022-09-23T13:12:29;11.63;;;3.10;;
16579;SDS011;8402;51.466;6.806;2022-09-23T13:15:03;5.22;;;2.95;;
16579;SDS011;8402;51.466;6.806;2022-09-23T13:17:41;13.93;;;4.05;;
16579;SDS011;8402;51.466;6.806;2022-09-23T13:23:16;10.90;;;3.95;;
16579;SDS011;8402;51.466;6.806;2022-09-23T13:25:48;23.50;;;3.72;;
16579;SDS011;8402;51.466;6.806;2022-09-23T13:28:24;17.00;;;3.28;;
16579;SDS011;8402;51.466;6.806;2022-09-23T13:30:56;4.95;;;2.85;;
16579;SDS011;8402;51.466;6.806;2022-09-23T13:33:27;5.63;;;2.80;;
16579;SDS011;8402;51.466;6.806;2022-09-23T13:36:00;7.30;;;3.10;;
16579;SDS011;8402;51.466;6.806;2022-09-23T13:38:29;10.55;;;3.25;;
16579;SDS011;8402;51.466;6.806;2022-09-23T13:40:59;6.90;;;3.08;;
16579;SDS011;8402;51.466;6.806;2022-09-23T13:43:31;7.72;;;2.90;;
16579;SDS011;8402;51.466;6.806;2022-09-23T13:46:08;4.50;;;2.60;;
16579;SDS011;8402;51.466;6.806;2022-09-23T13:48:39;6.53;;;3.10;;
16579;SDS011;8402;51.466;6.806;2022-09-23T13:51:11;10.27;;;3.70;;
16579;SDS011;8402;51.466;6.806;2022-09-23T13:53:50;7.78;;;3.22;;
16579;SDS011;8402;51.466;6.806;2022-09-23T13:56:19;11.45;;;3.40;;
16579;SDS011;8402;51.466;6.806;2022-09-23T13:58:47;6.70;;;3.42;;
16579;SDS011;8402;51.466;6.806;2022-09-23T14:01:21;8.55;;;3.50;;
16579;SDS011;8402;51.466;6.806;2022-09-23T14:03:55;16.70;;;4.32;;
16579;SDS011;8402;51.466;6.806;2022-09-23T14:06:24;14.57;;;4.03;;
16579;SDS011;8402;51.466;6.806;2022-09-23T14:08:54;9.57;;;4.05;;
16579;SDS011;8402;51.466;6.806;2022-09-23T14:11:27;8.48;;;3.47;;
16579;SDS011;8402;51.466;6.806;2022-09-23T14:13:58;6.35;;;3.40;;
16579;SDS011;8402;51.466;6.806;2022-09-23T14:16:36;9.23;;;2.83;;
16579;SDS011;8402;51.466;6.806;2022-09-23T14:19:06;5.53;;;3.30;;
16579;SDS011;8402;51.466;6.806;2022-09-23T14:21:45;7.35;;;3.35;;
16579;SDS011;8402;51.466;6.806;2022-09-23T14:24:15;5.93;;;3.10;;
16579;SDS011;8402;51.466;6.806;2022-09-23T14:26:45;7.45;;;3.42;;
16579;SDS011;8402;51.466;6.806;2022-09-23T14:29:15;5.00;;;2.90;;
16579;SDS011;8402;51.466;6.806;2022-09-23T14:31:48;6.90;;;3.58;;
16579;SDS011;8402;51.466;6.806;2022-09-23T14:34:41;5.93;;;3.20;;
16579;SDS011;8402;51.466;6.806;2022-09-23T14:37:27;7.30;;;2.85;;
16579;SDS011;8402;51.466;6.806;2022-09-23T14:40:16;7.80;;;3.40;;
16579;SDS011;8402;51.466;6.806;2022-09-23T14:42:46;5.88;;;2.80;;
16579;SDS011;8402;51.466;6.806;2022-09-23T14:45:18;8.45;;;3.00;;
16579;SDS011;8402;51.466;6.806;2022-09-23T14:47:51;4.35;;;2.90;;
16579;SDS011;8402;51.466;6.806;2022-09-23T14:50:25;7.10;;;2.75;;
16579;SDS011;8402;51.466;6.806;2022-09-23T14:56:06;6.32;;;2.70;;
16579;SDS011;8402;51.466;6.806;2022-09-23T14:58:40;4.00;;;2.47;;
16579;SDS011;8402;51.466;6.806;2022-09-23T15:01:22;7.97;;;2.33;;
16579;SDS011;8402;51.466;6.806;2022-09-23T15:04:08;5.40;;;2.63;;
16579;SDS011;8402;51.466;6.806;2022-09-23T15:06:39;4.10;;;2.60;;
16579;SDS011;8402;51.466;6.806;2022-09-23T15:09:16;5.53;;;2.50;;
16579;SDS011;8402;51.466;6.806;2022-09-23T15:11:53;7.05;;;2.65;;
16579;SDS011;8402;51.466;6.806;2022-09-23T15:14:25;5.35;;;2.63;;
16579;SDS011;8402;51.466;6.806;2022-09-23T15:17:14;6.95;;;2.65;;
16579;SDS011;8402;51.466;6.806;2022-09-23T15:19:52;4.70;;;2.08;;
16579;SDS011;8402;51.466;6.806;2022-09-23T15:22:23;3.40;;;2.15;;
16579;SDS011;8402;51.466;6.806;2022-09-23T15:24:52;3.72;;;2.13;;
16579;SDS011;8402;51.466;6.806;2022-09-23T15:27:28;4.65;;;2.30;;
16579;SDS011;8402;51.466;6.806;2022-09-23T15:30:09;3.53;;;2.38;;
16579;SDS011;8402;51.466;6.806;2022-09-23T15:32:44;4.68;;;2.38;;
16579;SDS011;8402;51.466;6.806;2022-09-23T15:35:14;5.18;;;2.53;;
16579;SDS011;8402;51.466;6.806;2022-09-23T15:37:44;4.40;;;1.92;;
16579;SDS011;8402;51.466;6.806;2022-09-23T15:40:14;4.93;;;2.10;;
16579;SDS011;8402;51.466;6.806;2022-09-23T15:42:46;2.80;;;1.70;;
16579;SDS011;8402;51.466;6.806;2022-09-23T15:45:17;4.13;;;1.90;;
16579;SDS011;8402;51.466;6.806;2022-09-23T15:47:47;3.17;;;1.90;;
16579;SDS011;8402;51.466;6.806;2022-09-23T15:50:18;3.72;;;1.83;;
16579;SDS011;8402;51.466;6.806;2022-09-23T15:52:46;5.80;;;2.10;;
16579;SDS011;8402;51.466;6.806;2022-09-23T15:55:15;3.33;;;1.52;;
16579;SDS011;8402;51.466;6.806;2022-09-23T15:57:44;4.50;;;1.83;;
16579;SDS011;8402;51.466;6.806;2022-09-23T16:00:13;4.22;;;2.13;;
16579;SDS011;8402;51.466;6.806;2022-09-23T16:02:43;5.15;;;2.10;;
16579;SDS011;8402;51.466;6.806;2022-09-23T16:05:17;4.90;;;1.90;;